Terminal Aerodrome Forecast
Issued by NWS Springfield, MO

Home | Current Version | Previous Version | Text Only | Print | Product List | Glossary On
Versions: 1 2 3 4 5 6 7 8 9 10 11 12 13 14
000
FTUS43 KSGF 010520
TAFSGF
TAF
KSGF 010520Z 0106/0206 VRB03KT P6SM VCSH SCT050 BKN100
     FM010800 VRB03KT P6SM SCT050 BKN100
     FM011500 VRB03KT P6SM VCSH SCT035 OVC100
     FM011800 34005KT P6SM VCSH OVC035
     FM012300 02006KT P6SM BKN100=

USA.gov is the U.S. government's official web portal to all federal, state and local government web resources and services.